ESK weather

Eski┼čehir Air Base
Eski┼čehir Province, Turkey

Public forecast

Using degrees Celsius for public forecast. Weather courtesy of forecast.io.

METAR (pilot weather report)

Retrieved 2019/07/23 03:50 UTC (1 hour ago):

LTBI 230350Z 00000KT CAVOK 15/13 Q1016 NOSIG RMK RWY08 28004KT

TAF (pilot weather forecast)

Forecast is more than 12 hours old.

Retrieved 2012/05/11 09:09 UTC (7 years ago):

TAF LTBI 110740Z 1109/1121 VRB02KT 6000 -SHRA BKN030 BKN090 TEMPO 1112/1116 33015KT 4000 -TSRA FEW025CB BKN030